Terminal Aerodrome Forecast
Issued by NWS Rapid City, SD

Home | Current Version | Previous Version | Graphics & Text | Print | Product List | Glossary On
Versions: 1 2 3 4 5 6 7 8 9 10 11 12 13 14 15 16 17 18 19
000
FTUS43 KUNR 011700
TAFRAP
TAF
KRAP 011720Z 0118/0218 34015KT P6SM BKN050
     FM020000 VRB05KT P6SM SCT050
     FM021400 15015KT P6SM BKN070=

USA.gov is the U.S. government's official web portal to all federal, state and local government web resources and services.